createdAt,value
2023-02-04T00:01:17.044Z,5.09
2023-02-04T00:02:48.376Z,6.19
2023-02-04T00:04:19.602Z,6.14
2023-02-04T00:05:51.312Z,5.55
2023-02-04T00:07:22.541Z,6.18
2023-02-04T00:08:53.818Z,5.40
2023-02-04T00:10:25.187Z,5.98
2023-02-04T00:11:56.439Z,5.97
2023-02-04T00:13:28.037Z,5.67
2023-02-04T00:15:04.317Z,5.70
2023-02-04T00:16:35.605Z,6.48
2023-02-04T00:18:07.205Z,6.09
2023-02-04T00:19:38.673Z,6.10
2023-02-04T00:21:09.836Z,5.51
2023-02-04T00:22:41.016Z,5.96
2023-02-04T00:24:12.276Z,6.48
2023-02-04T00:25:43.854Z,5.50
2023-02-04T00:27:15.247Z,6.08
2023-02-04T00:28:46.520Z,6.59
2023-02-04T00:30:18.079Z,6.21
2023-02-04T00:31:49.643Z,6.02
2023-02-04T00:33:25.975Z,5.93
2023-02-04T00:34:57.368Z,5.77
2023-02-04T00:36:28.634Z,5.71
2023-02-04T00:38:01.099Z,5.54
2023-02-04T00:39:32.491Z,5.92
2023-02-04T00:41:03.874Z,5.65
2023-02-04T00:42:35.503Z,5.66
2023-02-04T00:44:06.799Z,5.84
2023-02-04T00:45:38.243Z,6.16
2023-02-04T00:47:09.666Z,6.20
2023-02-04T00:48:40.881Z,5.71
2023-02-04T00:50:12.328Z,5.97
2023-02-04T00:51:43.818Z,5.93
2023-02-04T00:53:15.115Z,5.75
2023-02-04T00:54:46.415Z,5.27
2023-02-04T00:56:17.801Z,5.42
2023-02-04T00:57:49.125Z,5.28
2023-02-04T00:59:20.397Z,6.14
2023-02-04T01:00:51.876Z,5.35
2023-02-04T01:02:23.285Z,5.56
2023-02-04T01:03:54.707Z,5.23
2023-02-04T01:05:25.970Z,5.72
2023-02-04T01:06:57.432Z,5.57
2023-02-04T01:08:28.715Z,6.00
2023-02-04T01:10:00.026Z,5.38
2023-02-04T01:11:31.314Z,5.42
2023-02-04T01:13:02.674Z,5.19
2023-02-04T01:14:33.990Z,5.51
2023-02-04T01:16:05.329Z,5.34
2023-02-04T01:17:36.719Z,5.73
2023-02-04T01:19:07.984Z,6.48
2023-02-04T01:20:39.512Z,5.62
2023-02-04T01:22:10.853Z,6.10
2023-02-04T01:23:42.512Z,6.06
2023-02-04T01:25:14.053Z,5.45
2023-02-04T01:26:45.646Z,5.11
2023-02-04T01:28:17.069Z,4.98
2023-02-04T01:29:48.478Z,5.83
2023-02-04T01:31:19.837Z,5.59
2023-02-04T01:32:51.142Z,5.88
2023-02-04T01:34:22.434Z,6.14
2023-02-04T01:35:53.728Z,5.54
2023-02-04T01:37:24.995Z,6.33
2023-02-04T01:38:56.298Z,6.12
2023-02-04T01:40:27.814Z,5.81
2023-02-04T01:41:59.337Z,5.92
2023-02-04T01:43:30.596Z,6.49
2023-02-04T01:45:02.008Z,5.53
2023-02-04T01:46:33.383Z,5.91
2023-02-04T01:48:04.811Z,5.94
2023-02-04T01:49:36.338Z,6.21
2023-02-04T01:51:07.714Z,5.61
2023-02-04T01:52:39.168Z,6.09
2023-02-04T01:54:10.903Z,5.96
2023-02-04T01:55:42.161Z,5.81
2023-02-04T01:57:13.427Z,5.56
2023-02-04T01:58:44.853Z,5.16
2023-02-04T02:00:16.435Z,5.98
2023-02-04T02:01:47.909Z,6.00
2023-02-04T02:03:19.210Z,5.26
2023-02-04T02:04:50.542Z,5.12
2023-02-04T02:06:21.770Z,5.07
2023-02-04T02:07:53.042Z,5.38
2023-02-04T02:09:24.373Z,5.36
2023-02-04T02:10:56.858Z,4.87
2023-02-04T02:12:28.261Z,5.75
2023-02-04T02:13:59.667Z,5.98
2023-02-04T02:15:30.936Z,5.38
2023-02-04T02:17:02.337Z,5.56
2023-02-04T02:18:33.677Z,6.07
2023-02-04T02:20:05.058Z,6.43
2023-02-04T02:21:36.347Z,6.03
2023-02-04T02:23:08.049Z,5.15
2023-02-04T02:24:39.484Z,5.26
2023-02-04T02:26:10.705Z,6.19
2023-02-04T02:27:42.046Z,5.60
2023-02-04T02:29:13.501Z,5.86
2023-02-04T02:30:45.538Z,5.97
2023-02-04T02:32:16.880Z,5.41
2023-02-04T02:33:48.265Z,5.80
2023-02-04T02:35:19.647Z,6.23
2023-02-04T02:36:50.968Z,5.59
2023-02-04T02:38:22.327Z,4.93
2023-02-04T02:39:54.034Z,5.77
2023-02-04T02:41:25.403Z,6.11
2023-02-04T02:42:57.119Z,5.63
2023-02-04T02:44:28.601Z,5.34
2023-02-04T02:45:59.995Z,5.41
2023-02-04T02:47:31.456Z,5.74
2023-02-04T02:49:02.719Z,5.97
2023-02-04T02:50:34.132Z,5.02
2023-02-04T02:52:05.400Z,6.32
2023-02-04T02:53:36.706Z,5.67
2023-02-04T02:55:08.079Z,6.01
2023-02-04T02:56:39.390Z,6.30
2023-02-04T02:58:11.171Z,6.40
2023-02-04T02:59:42.558Z,6.52
2023-02-04T03:01:13.857Z,5.84
2023-02-04T03:02:45.498Z,5.89
2023-02-04T03:04:16.816Z,5.85
2023-02-04T03:05:48.131Z,6.25
2023-02-04T03:07:19.531Z,5.70
2023-02-04T03:08:50.843Z,5.32
2023-02-04T03:10:22.052Z,5.95
2023-02-04T03:11:53.421Z,5.79
2023-02-04T03:13:24.833Z,5.99
2023-02-04T03:14:56.284Z,5.95
2023-02-04T03:16:27.519Z,6.05
2023-02-04T03:17:58.997Z,5.67
2023-02-04T03:19:30.270Z,5.70
2023-02-04T03:21:01.587Z,5.98
2023-02-04T03:22:32.850Z,5.62
2023-02-04T03:24:04.118Z,5.87
2023-02-04T03:25:35.424Z,5.84
2023-02-04T03:27:06.720Z,5.56
2023-02-04T03:28:38.299Z,5.61
2023-02-04T03:30:09.576Z,5.79
2023-02-04T03:31:41.032Z,6.05
2023-02-04T03:33:12.339Z,6.19
2023-02-04T03:34:43.872Z,6.19
2023-02-04T03:36:20.282Z,6.45
2023-02-04T03:37:51.658Z,6.10
2023-02-04T03:39:22.935Z,5.46
2023-02-04T03:40:54.334Z,5.99
2023-02-04T03:42:25.609Z,6.29
2023-02-04T03:43:56.936Z,6.16
2023-02-04T03:45:32.418Z,6.14
2023-02-04T03:47:06.222Z,5.83
2023-02-04T03:48:37.460Z,6.16
2023-02-04T03:50:08.738Z,6.01
2023-02-04T03:51:40.129Z,6.30
2023-02-04T03:53:11.710Z,6.07
2023-02-04T03:54:43.118Z,5.44
2023-02-04T03:56:14.624Z,5.74
2023-02-04T03:57:45.899Z,6.55
2023-02-04T03:59:17.390Z,6.09
2023-02-04T04:00:48.665Z,5.52
2023-02-04T04:02:19.943Z,6.28
2023-02-04T04:03:51.210Z,6.09
2023-02-04T04:05:22.392Z,6.18
2023-02-04T04:06:53.728Z,5.91
2023-02-04T04:08:24.964Z,6.78
2023-02-04T04:09:56.406Z,6.17
2023-02-04T04:11:27.675Z,6.37
2023-02-04T04:12:59.062Z,6.37
2023-02-04T04:14:30.338Z,6.33
2023-02-04T04:16:01.732Z,6.13
2023-02-04T04:17:33.143Z,5.88
2023-02-04T04:19:04.391Z,6.09
2023-02-04T04:20:35.633Z,6.07
2023-02-04T04:22:06.879Z,5.91
2023-02-04T04:23:38.089Z,5.90
2023-02-04T04:25:09.476Z,5.51
2023-02-04T04:26:41.890Z,6.33
2023-02-04T04:28:13.323Z,6.13
2023-02-04T04:29:44.677Z,6.19
2023-02-04T04:31:16.073Z,5.65
2023-02-04T04:32:47.582Z,6.00
2023-02-04T04:34:19.136Z,6.68
2023-02-04T04:35:50.529Z,6.21
2023-02-04T04:37:21.812Z,5.55
2023-02-04T04:38:53.092Z,6.40
2023-02-04T04:40:24.954Z,5.95
2023-02-04T04:41:56.450Z,6.16
2023-02-04T04:43:27.824Z,6.11
2023-02-04T04:44:59.117Z,6.97
2023-02-04T04:46:30.455Z,7.00
2023-02-04T04:48:01.861Z,6.18
2023-02-04T04:49:33.609Z,6.58
2023-02-04T04:51:04.910Z,5.92
2023-02-04T04:52:36.209Z,6.75
2023-02-04T04:54:12.462Z,6.12
2023-02-04T04:55:44.398Z,6.51
2023-02-04T04:57:15.674Z,6.06
2023-02-04T04:58:47.045Z,6.24
2023-02-04T05:00:18.351Z,5.96
2023-02-04T05:01:49.747Z,6.15
2023-02-04T05:03:21.005Z,6.42
2023-02-04T05:04:52.381Z,6.62
2023-02-04T05:06:23.931Z,6.46
2023-02-04T05:07:55.140Z,6.01
2023-02-04T05:09:27.066Z,6.12
2023-02-04T05:10:59.967Z,6.37
2023-02-04T05:12:31.216Z,5.97
2023-02-04T05:14:02.761Z,6.16
2023-02-04T05:15:34.114Z,6.23
2023-02-04T05:17:05.475Z,6.14
2023-02-04T05:18:36.759Z,5.88
2023-02-04T05:20:08.098Z,6.95
2023-02-04T05:21:39.335Z,6.67
2023-02-04T05:23:10.805Z,5.98
2023-02-04T05:24:42.121Z,5.83
2023-02-04T05:26:19.549Z,6.51
2023-02-04T05:27:56.574Z,5.72
2023-02-04T05:29:28.019Z,6.24
2023-02-04T05:30:59.490Z,6.56
2023-02-04T05:32:31.975Z,6.25
2023-02-04T05:34:03.724Z,6.39
2023-02-04T05:35:34.957Z,6.59
2023-02-04T05:37:06.194Z,6.02
2023-02-04T05:38:37.397Z,6.03
2023-02-04T05:40:08.770Z,6.60
2023-02-04T05:41:39.967Z,6.55
2023-02-04T05:43:11.146Z,6.08
2023-02-04T05:44:42.497Z,6.51
2023-02-04T05:46:13.791Z,5.77
2023-02-04T05:47:45.220Z,6.33
2023-02-04T05:49:16.488Z,6.26
2023-02-04T05:50:47.759Z,6.38
2023-02-04T05:52:19.060Z,6.23
2023-02-04T05:53:50.341Z,6.20
2023-02-04T05:55:21.632Z,6.74
2023-02-04T05:56:52.911Z,6.27
2023-02-04T05:58:24.212Z,6.09
2023-02-04T05:59:55.471Z,6.59
2023-02-04T06:01:26.896Z,5.98
2023-02-04T06:02:58.428Z,6.08
2023-02-04T06:04:29.909Z,7.07
2023-02-04T06:06:01.372Z,6.20
2023-02-04T06:07:32.843Z,6.46
2023-02-04T06:09:04.218Z,6.83
2023-02-04T06:10:35.697Z,5.89
2023-02-04T06:12:07.467Z,6.89
2023-02-04T06:13:38.969Z,6.21
2023-02-04T06:15:10.342Z,5.90
2023-02-04T06:16:42.002Z,6.29
2023-02-04T06:18:14.224Z,6.25
2023-02-04T06:19:45.815Z,6.25
2023-02-04T06:21:17.205Z,6.39
2023-02-04T06:22:48.495Z,6.33
2023-02-04T06:24:19.848Z,6.68
2023-02-04T06:25:51.368Z,6.50
2023-02-04T06:27:22.802Z,6.37
2023-02-04T06:28:54.427Z,6.63
2023-02-04T06:30:25.664Z,5.91
2023-02-04T06:31:57.247Z,5.90
2023-02-04T06:33:29.041Z,6.29
2023-02-04T06:35:00.281Z,6.80
2023-02-04T06:36:31.737Z,6.41
2023-02-04T06:38:03.150Z,6.46
2023-02-04T06:39:34.617Z,6.90
2023-02-04T06:41:05.880Z,6.64
2023-02-04T06:42:37.353Z,6.91
2023-02-04T06:44:08.746Z,6.20
2023-02-04T06:45:40.023Z,7.11
2023-02-04T06:47:11.300Z,6.96
2023-02-04T06:50:55.090Z,6.37
2023-02-04T06:52:36.442Z,6.88
2023-02-04T06:54:22.151Z,6.78
2023-02-04T06:55:53.632Z,7.09
2023-02-04T06:57:25.289Z,6.81
2023-02-04T06:58:56.797Z,7.51
2023-02-04T07:00:28.085Z,6.23
2023-02-04T07:01:59.361Z,6.56
2023-02-04T07:03:30.663Z,6.39
2023-02-04T07:05:02.288Z,6.54
2023-02-04T07:06:33.706Z,7.07
2023-02-04T07:08:05.046Z,6.62
2023-02-04T07:09:36.382Z,7.13
2023-02-04T07:11:07.626Z,6.62
2023-02-04T07:12:38.912Z,6.57
2023-02-04T07:15:26.409Z,6.47
2023-02-04T07:16:58.081Z,6.36
2023-02-04T07:18:29.879Z,6.61
2023-02-04T07:20:07.448Z,6.88
2023-02-04T07:21:39.571Z,6.95
2023-02-04T07:23:11.417Z,7.37
2023-02-04T07:25:04.764Z,6.36
2023-02-04T07:26:55.511Z,6.65
2023-02-04T07:28:27.013Z,6.63
2023-02-04T07:29:58.288Z,6.43
2023-02-04T07:32:00.797Z,6.64
2023-02-04T07:33:57.692Z,6.66
2023-02-04T07:35:39.068Z,6.33
2023-02-04T07:37:10.558Z,6.87
2023-02-04T07:39:01.922Z,6.85
2023-02-04T07:40:33.774Z,6.90
2023-02-04T07:42:15.737Z,7.20
2023-02-04T07:43:47.374Z,7.12
2023-02-04T07:45:28.840Z,6.37
2023-02-04T07:47:00.145Z,7.23
2023-02-04T07:48:41.414Z,6.66
2023-02-04T07:50:52.133Z,6.69
2023-02-04T07:52:23.572Z,7.10
2023-02-04T07:54:24.726Z,7.74
2023-02-04T07:55:56.345Z,7.58
2023-02-04T07:57:28.442Z,7.29
2023-02-04T07:59:00.662Z,7.12
2023-02-04T08:00:32.641Z,7.01
2023-02-04T08:04:15.912Z,6.47
2023-02-04T08:05:47.646Z,6.28
2023-02-04T08:07:50.151Z,6.58
2023-02-04T08:09:21.645Z,7.04
2023-02-04T08:10:53.333Z,6.84
2023-02-04T08:12:25.014Z,6.72
2023-02-04T08:13:56.572Z,7.10
2023-02-04T08:17:47.353Z,7.36
2023-02-04T08:21:17.115Z,6.91
2023-02-04T08:22:49.401Z,7.10
2023-02-04T08:24:21.018Z,7.80
2023-02-04T08:25:52.427Z,7.48
2023-02-04T08:27:23.926Z,7.34
2023-02-04T08:28:55.301Z,7.30
2023-02-04T08:30:26.714Z,7.63
2023-02-04T08:31:58.015Z,7.81
2023-02-04T08:33:29.610Z,7.59
2023-02-04T08:35:47.917Z,7.24
2023-02-04T08:37:19.825Z,6.94
2023-02-04T08:38:51.459Z,7.18
2023-02-04T08:40:27.257Z,6.91
2023-02-04T08:42:09.357Z,7.02
2023-02-04T08:43:41.336Z,6.82
2023-02-04T08:45:12.972Z,7.25
2023-02-04T08:46:49.801Z,7.22
2023-02-04T08:50:45.263Z,6.86
2023-02-04T08:52:17.022Z,6.95
2023-02-04T08:54:10.141Z,7.62
2023-02-04T08:55:42.126Z,7.54
2023-02-04T08:57:13.618Z,8.37
2023-02-04T08:58:45.053Z,7.36
2023-02-04T09:00:21.803Z,7.50
2023-02-04T09:01:53.797Z,7.15
2023-02-04T09:03:25.494Z,6.89
2023-02-04T09:04:57.056Z,6.66
2023-02-04T09:06:29.125Z,7.01
2023-02-04T09:08:01.049Z,7.64
2023-02-04T09:09:32.605Z,7.17
2023-02-04T09:11:04.014Z,7.14
2023-02-04T09:12:40.993Z,7.20
2023-02-04T09:14:12.797Z,7.88
2023-02-04T09:15:44.227Z,7.53
2023-02-04T09:17:15.620Z,7.25
2023-02-04T09:18:47.009Z,7.28
2023-02-04T09:20:18.329Z,7.52
2023-02-04T09:21:50.019Z,7.31
2023-02-04T09:23:23.068Z,7.20
2023-02-04T09:24:54.330Z,8.30
2023-02-04T09:26:26.871Z,7.25
2023-02-04T09:27:58.609Z,7.24
2023-02-04T09:29:30.137Z,6.62
2023-02-04T09:31:04.389Z,7.54
2023-02-04T09:32:35.971Z,6.72
2023-02-04T09:34:07.269Z,7.48
2023-02-04T09:35:38.545Z,8.05
2023-02-04T09:37:10.093Z,7.10
2023-02-04T09:38:41.541Z,7.61
2023-02-04T09:40:13.328Z,7.80
2023-02-04T09:41:54.673Z,7.95
2023-02-04T09:43:26.132Z,8.40
2023-02-04T09:44:57.592Z,8.03
2023-02-04T09:46:29.238Z,7.47
2023-02-04T09:48:00.743Z,7.93
2023-02-04T09:49:32.157Z,7.68
2023-02-04T09:51:03.646Z,7.72
2023-02-04T09:52:35.147Z,7.01
2023-02-04T09:54:07.076Z,7.77
2023-02-04T09:55:39.518Z,7.89
2023-02-04T09:57:11.989Z,8.61
2023-02-04T09:58:43.292Z,9.08
2023-02-04T10:00:14.796Z,10.74
2023-02-04T10:01:46.171Z,9.63
2023-02-04T10:03:17.642Z,10.07
2023-02-04T10:04:48.997Z,9.53
2023-02-04T10:06:20.324Z,9.61
2023-02-04T10:07:51.836Z,9.42
2023-02-04T10:09:23.379Z,9.15
2023-02-04T10:10:55.933Z,9.75
2023-02-04T10:12:28.494Z,10.89
2023-02-04T10:14:00.054Z,9.74
2023-02-04T10:15:31.336Z,8.86
2023-02-04T10:17:02.746Z,8.90
2023-02-04T10:18:34.102Z,9.97
2023-02-04T10:20:05.465Z,11.04
2023-02-04T10:21:36.817Z,10.74
2023-02-04T10:23:08.142Z,10.95
2023-02-04T10:24:39.524Z,10.65
2023-02-04T10:26:10.952Z,10.14
2023-02-04T10:27:42.524Z,10.73
2023-02-04T10:29:13.927Z,11.17
2023-02-04T10:30:45.728Z,10.65
2023-02-04T10:32:17.260Z,11.62
2023-02-04T10:33:49.000Z,9.76
2023-02-04T10:35:25.351Z,10.46
2023-02-04T10:36:56.979Z,10.93
2023-02-04T10:38:28.382Z,10.58
2023-02-04T10:40:04.675Z,10.72
2023-02-04T10:41:36.131Z,9.79
2023-02-04T10:43:12.757Z,9.93
2023-02-04T10:44:44.195Z,9.84
2023-02-04T10:46:15.718Z,8.86
2023-02-04T10:47:47.007Z,8.38
2023-02-04T10:49:18.355Z,8.03
2023-02-04T10:50:49.979Z,11.54
2023-02-04T10:52:21.386Z,14.21
2023-02-04T10:53:57.662Z,9.25
2023-02-04T10:55:29.180Z,7.71
2023-02-04T10:57:00.766Z,7.71
2023-02-04T10:58:32.124Z,8.05
2023-02-04T11:00:03.612Z,7.42
2023-02-04T11:01:35.508Z,6.96
2023-02-04T11:03:06.975Z,8.18
2023-02-04T11:04:38.473Z,8.09
2023-02-04T11:06:09.882Z,7.73
2023-02-04T11:07:41.186Z,7.22
2023-02-04T11:09:12.501Z,7.59
2023-02-04T11:10:43.936Z,8.43
2023-02-04T11:12:15.348Z,7.91
2023-02-04T11:13:46.712Z,8.06
2023-02-04T11:15:18.022Z,7.50
2023-02-04T11:16:49.784Z,7.09
2023-02-04T11:18:21.479Z,7.27
2023-02-04T11:19:52.963Z,7.56
2023-02-04T11:21:24.541Z,7.66
2023-02-04T11:22:56.021Z,8.22
2023-02-04T11:24:27.573Z,7.05
2023-02-04T11:25:59.183Z,7.55
2023-02-04T11:27:30.427Z,7.27
2023-02-04T11:29:01.866Z,7.36
2023-02-04T11:30:33.939Z,7.36
2023-02-04T11:32:05.613Z,7.60
2023-02-04T11:33:37.020Z,7.78
2023-02-04T11:35:08.513Z,7.86
2023-02-04T11:36:39.900Z,8.10
2023-02-04T11:38:11.443Z,7.79
2023-02-04T11:39:48.067Z,7.07
2023-02-04T11:41:19.584Z,7.05
2023-02-04T11:42:51.110Z,7.69
2023-02-04T11:44:22.996Z,7.16
2023-02-04T11:45:54.718Z,7.17
2023-02-04T11:47:26.501Z,6.90
2023-02-04T11:48:57.992Z,6.81
2023-02-04T11:50:29.408Z,7.33
2023-02-04T11:52:00.737Z,7.69
2023-02-04T11:53:32.081Z,7.21
2023-02-04T11:55:03.466Z,6.83
2023-02-04T11:56:34.955Z,7.35
2023-02-04T11:58:06.419Z,7.55
2023-02-04T11:59:37.695Z,6.60
2023-02-04T12:01:09.138Z,7.68
2023-02-04T12:02:40.520Z,7.68
2023-02-04T12:04:11.984Z,8.37
2023-02-04T12:05:43.321Z,6.98
2023-02-04T12:07:14.865Z,6.64
2023-02-04T12:08:46.313Z,6.79
2023-02-04T12:10:17.850Z,6.43
2023-02-04T12:11:49.244Z,6.52
2023-02-04T12:13:20.784Z,6.61
2023-02-04T12:14:53.053Z,6.75
2023-02-04T12:16:24.372Z,6.28
2023-02-04T12:17:55.937Z,6.47
2023-02-04T12:19:27.726Z,6.56
2023-02-04T12:20:59.295Z,7.00
2023-02-04T12:22:30.826Z,6.21
2023-02-04T12:24:02.522Z,6.67
2023-02-04T12:25:34.168Z,7.16
2023-02-04T12:27:05.679Z,7.04
2023-02-04T12:28:37.066Z,6.44
2023-02-04T12:30:08.734Z,7.13
2023-02-04T12:31:40.185Z,6.90
2023-02-04T12:33:14.765Z,7.66
2023-02-04T12:34:46.493Z,7.19
2023-02-04T12:36:17.835Z,7.59
2023-02-04T12:37:49.198Z,7.32
2023-02-04T12:39:20.924Z,7.00
2023-02-04T12:40:52.262Z,6.77
2023-02-04T12:42:23.702Z,7.06
2023-02-04T12:43:55.125Z,7.27
2023-02-04T12:45:26.553Z,6.37
2023-02-04T12:46:58.028Z,6.37
2023-02-04T12:48:29.497Z,6.58
2023-02-04T12:50:00.888Z,7.13
2023-02-04T12:51:32.222Z,7.46
2023-02-04T12:53:03.489Z,8.08
2023-02-04T12:54:35.057Z,7.57
2023-02-04T12:56:06.571Z,8.08
2023-02-04T12:57:38.283Z,6.91
2023-02-04T12:59:09.598Z,7.78
2023-02-04T13:00:41.076Z,7.37
2023-02-04T13:02:12.569Z,7.51
2023-02-04T13:03:44.614Z,7.25
2023-02-04T13:05:16.313Z,7.73
2023-02-04T13:06:47.882Z,7.35
2023-02-04T13:08:20.222Z,6.78
2023-02-04T13:09:51.703Z,7.25
2023-02-04T13:11:33.253Z,7.05
2023-02-04T13:13:05.650Z,7.46
2023-02-04T13:14:37.625Z,7.48
2023-02-04T13:16:09.528Z,7.66
2023-02-04T13:17:41.039Z,7.12
2023-02-04T13:19:12.630Z,7.40
2023-02-04T13:20:44.083Z,8.17
2023-02-04T13:22:16.229Z,10.10
2023-02-04T13:23:48.462Z,8.95
2023-02-04T13:25:20.139Z,7.84
2023-02-04T13:26:51.615Z,7.36
2023-02-04T13:28:22.995Z,6.82
2023-02-04T13:29:54.929Z,6.65
2023-02-04T13:31:26.605Z,7.33
2023-02-04T13:32:58.039Z,8.28
2023-02-04T13:34:29.350Z,8.24
2023-02-04T13:36:00.690Z,7.59
2023-02-04T13:37:32.205Z,7.01
2023-02-04T13:39:03.598Z,7.68
2023-02-04T13:40:35.063Z,7.74
2023-02-04T13:42:06.731Z,8.15
2023-02-04T13:43:38.154Z,7.46
2023-02-04T13:45:09.603Z,7.46
2023-02-04T13:46:40.909Z,7.50
2023-02-04T13:48:17.469Z,8.37
2023-02-04T13:49:48.781Z,7.67
2023-02-04T13:51:20.283Z,8.46
2023-02-04T13:52:51.655Z,8.56
2023-02-04T13:54:22.994Z,8.19
2023-02-04T13:55:59.279Z,8.22
2023-02-04T13:57:30.628Z,8.07
2023-02-04T13:59:02.089Z,8.58
2023-02-04T14:00:33.615Z,7.94
2023-02-04T14:02:05.209Z,8.45
2023-02-04T14:03:36.721Z,9.05
2023-02-04T14:05:08.402Z,8.74
2023-02-04T14:06:39.842Z,8.58
2023-02-04T14:08:11.204Z,8.01
2023-02-04T14:09:42.527Z,8.19
2023-02-04T14:11:13.964Z,8.15
2023-02-04T14:12:45.681Z,7.80
2023-02-04T14:14:17.126Z,7.35
2023-02-04T14:15:53.569Z,8.10
2023-02-04T14:17:24.901Z,8.39
2023-02-04T14:18:56.545Z,8.52
2023-02-04T14:20:27.865Z,7.90
2023-02-04T14:21:59.278Z,7.94
2023-02-04T14:23:30.791Z,7.89
2023-02-04T14:25:02.168Z,8.66
2023-02-04T14:26:33.718Z,7.91
2023-02-04T14:28:05.250Z,7.93
2023-02-04T14:31:52.657Z,7.81
2023-02-04T14:33:50.245Z,7.61
2023-02-04T14:35:22.219Z,7.88
2023-02-04T14:36:54.203Z,7.44
2023-02-04T14:38:26.084Z,7.63
2023-02-04T14:39:57.895Z,8.00
2023-02-04T14:41:29.755Z,8.10
2023-02-04T14:43:01.595Z,8.04
2023-02-04T14:44:33.407Z,8.32
2023-02-04T14:46:05.533Z,7.95
2023-02-04T14:47:37.926Z,7.84
2023-02-04T14:49:09.641Z,8.64
2023-02-04T14:50:41.491Z,8.18
2023-02-04T14:52:13.119Z,7.64
2023-02-04T14:53:48.333Z,7.55
2023-02-04T14:55:20.596Z,7.62
2023-02-04T14:56:52.707Z,7.89
2023-02-04T14:58:25.712Z,8.04
2023-02-04T14:59:58.629Z,7.60
2023-02-04T15:01:30.388Z,8.01
2023-02-04T15:03:01.950Z,7.75
2023-02-04T15:04:33.821Z,7.04
2023-02-04T15:06:06.433Z,7.03
2023-02-04T15:07:37.750Z,7.55
2023-02-04T15:09:09.422Z,7.42
2023-02-04T15:10:40.960Z,7.72
2023-02-04T15:12:14.959Z,7.90
2023-02-04T15:13:46.779Z,7.48
2023-02-04T15:15:18.850Z,7.92
2023-02-04T15:16:50.744Z,8.40
2023-02-04T15:18:22.610Z,7.84
2023-02-04T15:19:54.445Z,8.20
2023-02-04T15:21:25.970Z,8.50
2023-02-04T15:23:00.507Z,7.65
2023-02-04T15:24:32.380Z,8.03
2023-02-04T15:26:03.901Z,7.91
2023-02-04T15:27:35.564Z,8.30
2023-02-04T15:29:07.295Z,8.04
2023-02-04T15:30:39.244Z,8.25
2023-02-04T15:32:10.934Z,8.10
2023-02-04T15:33:42.929Z,8.56
2023-02-04T15:35:15.193Z,8.57
2023-02-04T15:36:47.039Z,8.90
2023-02-04T15:38:18.801Z,8.41
2023-02-04T15:39:50.505Z,8.72
2023-02-04T15:41:22.228Z,8.45
2023-02-04T15:42:54.071Z,8.61
2023-02-04T15:44:35.048Z,8.27
2023-02-04T15:46:21.085Z,8.30
2023-02-04T15:47:53.007Z,8.67
2023-02-04T15:49:24.736Z,8.38
2023-02-04T15:50:56.193Z,8.81
2023-02-04T15:52:29.351Z,9.61
2023-02-04T15:54:01.555Z,8.96
2023-02-04T15:55:33.553Z,8.48
2023-02-04T15:57:05.623Z,8.60
2023-02-04T15:58:37.954Z,8.82
2023-02-04T16:00:10.030Z,8.48
2023-02-04T16:01:42.230Z,8.26
2023-02-04T16:03:14.931Z,9.12
2023-02-04T16:04:46.891Z,8.73
2023-02-04T16:06:19.290Z,8.77
2023-02-04T16:07:51.506Z,8.71
2023-02-04T16:09:23.252Z,8.40
2023-02-04T16:10:55.615Z,8.65
2023-02-04T16:12:32.328Z,8.52
2023-02-04T16:14:04.240Z,8.58
2023-02-04T16:15:36.333Z,8.75
2023-02-04T16:17:08.407Z,8.35
2023-02-04T16:18:40.310Z,8.48
2023-02-04T16:20:12.162Z,8.54
2023-02-04T16:21:44.252Z,8.77
2023-02-04T16:23:16.350Z,8.78
2023-02-04T16:24:48.097Z,8.50
2023-02-04T16:26:20.070Z,8.62
2023-02-04T16:27:52.088Z,9.07
2023-02-04T16:29:24.283Z,9.11
2023-02-04T16:30:56.148Z,9.23
2023-02-04T16:32:28.088Z,10.27
2023-02-04T16:34:00.001Z,8.93
2023-02-04T16:35:32.557Z,9.07
2023-02-04T16:37:04.334Z,9.03
2023-02-04T16:38:36.014Z,8.41
2023-02-04T16:40:07.611Z,8.91
2023-02-04T16:41:39.324Z,9.00
2023-02-04T16:43:44.724Z,8.54
2023-02-04T16:45:16.364Z,8.40
2023-02-04T16:46:48.478Z,7.78
2023-02-04T16:48:20.234Z,7.57
2023-02-04T16:49:52.036Z,7.13
2023-02-04T16:51:23.781Z,7.42
2023-02-04T16:52:55.908Z,7.41
2023-02-04T16:54:28.066Z,7.15
2023-02-04T16:55:59.669Z,6.90
2023-02-04T16:57:31.301Z,6.70
2023-02-04T16:59:02.958Z,7.53
2023-02-04T17:00:35.561Z,7.52
2023-02-04T17:02:07.023Z,7.13
2023-02-04T17:03:39.411Z,7.02
2023-02-04T17:05:24.592Z,7.31
2023-02-04T17:06:56.303Z,6.70
2023-02-04T17:08:50.331Z,7.00
2023-02-04T17:10:22.314Z,6.89
2023-02-04T17:11:54.405Z,7.16
2023-02-04T17:13:25.887Z,7.18
2023-02-04T17:14:57.512Z,6.34
2023-02-04T17:16:29.169Z,6.90
2023-02-04T17:18:00.586Z,7.40
2023-02-04T17:19:31.913Z,7.40
2023-02-04T17:21:03.316Z,7.42
2023-02-04T17:22:34.934Z,6.84
2023-02-04T17:24:07.053Z,6.91
2023-02-04T17:25:38.759Z,6.83
2023-02-04T17:27:10.416Z,6.72
2023-02-04T17:28:42.058Z,7.16
2023-02-04T17:30:13.698Z,6.65
2023-02-04T17:31:45.107Z,6.41
2023-02-04T17:33:16.423Z,7.17
2023-02-04T17:34:47.778Z,6.43
2023-02-04T17:36:19.118Z,7.11
2023-02-04T17:37:50.940Z,6.99
2023-02-04T17:39:22.217Z,6.81
2023-02-04T17:40:53.745Z,6.64
2023-02-04T17:42:25.055Z,6.95
2023-02-04T17:43:56.502Z,7.15
2023-02-04T17:45:27.936Z,7.49
2023-02-04T17:46:59.605Z,7.50
2023-02-04T17:48:31.297Z,7.11
2023-02-04T17:50:02.697Z,7.86
2023-02-04T17:51:34.113Z,14.72
2023-02-04T17:53:05.393Z,16.25
2023-02-04T17:54:36.817Z,20.05
2023-02-04T17:56:08.111Z,21.02
2023-02-04T17:57:39.839Z,22.41
2023-02-04T17:59:11.230Z,26.14
2023-02-04T18:00:42.786Z,24.00
2023-02-04T18:02:14.531Z,13.84
2023-02-04T18:03:46.151Z,9.96
2023-02-04T18:05:17.850Z,8.50
2023-02-04T18:06:49.202Z,7.45
2023-02-04T18:08:20.693Z,7.52
2023-02-04T18:09:52.217Z,8.33
2023-02-04T18:11:25.853Z,8.61
2023-02-04T18:12:59.049Z,8.72
2023-02-04T18:14:30.434Z,8.88
2023-02-04T18:16:01.926Z,9.25
2023-02-04T18:17:33.225Z,8.45
2023-02-04T18:19:04.854Z,8.54
2023-02-04T18:20:36.982Z,8.08
2023-02-04T18:22:13.391Z,8.16
2023-02-04T18:23:45.001Z,7.50
2023-02-04T18:25:16.523Z,8.78
2023-02-04T18:26:47.793Z,8.85
2023-02-04T18:28:19.639Z,7.78
2023-02-04T18:29:51.645Z,7.84
2023-02-04T18:31:23.076Z,8.13
2023-02-04T18:32:54.618Z,7.33
2023-02-04T18:34:26.022Z,7.71
2023-02-04T18:35:57.307Z,8.47
2023-02-04T18:37:29.186Z,9.35
2023-02-04T18:39:00.775Z,11.59
2023-02-04T18:40:32.578Z,10.54
2023-02-04T18:42:04.158Z,9.32
2023-02-04T18:43:36.526Z,8.88
2023-02-04T18:45:08.161Z,8.79
2023-02-04T18:46:39.805Z,8.74
2023-02-04T18:48:11.049Z,8.31
2023-02-04T18:49:42.354Z,8.03
2023-02-04T18:51:13.659Z,8.37
2023-02-04T18:52:45.471Z,8.41
2023-02-04T18:54:17.116Z,8.66
2023-02-04T18:55:48.615Z,8.51
2023-02-04T18:57:20.019Z,8.78
2023-02-04T18:58:51.343Z,8.69
2023-02-04T19:00:22.584Z,9.04
2023-02-04T19:01:54.063Z,8.50
2023-02-04T19:03:25.487Z,8.40
2023-02-04T19:05:12.319Z,8.79
2023-02-04T19:06:44.582Z,8.76
2023-02-04T19:08:16.010Z,8.84
2023-02-04T19:09:47.501Z,9.40
2023-02-04T19:11:19.163Z,9.47
2023-02-04T19:12:50.563Z,12.50
2023-02-04T19:14:22.453Z,18.44
2023-02-04T19:15:58.918Z,18.16
2023-02-04T19:17:43.754Z,15.13
2023-02-04T19:19:15.520Z,13.78
2023-02-04T19:20:46.970Z,13.15
2023-02-04T19:22:18.390Z,12.89
2023-02-04T19:23:49.845Z,14.39
2023-02-04T19:25:21.121Z,20.29
2023-02-04T19:26:52.410Z,26.29
2023-02-04T19:28:24.569Z,26.79
2023-02-04T19:29:56.165Z,25.85
2023-02-04T19:31:27.680Z,21.84
2023-02-04T19:32:59.727Z,18.88
2023-02-04T19:34:31.196Z,25.37
2023-02-04T19:36:02.561Z,32.71
2023-02-04T19:37:33.878Z,35.44
2023-02-04T19:39:05.653Z,25.81
2023-02-04T19:40:37.345Z,24.54
2023-02-04T19:42:09.159Z,22.01
2023-02-04T19:43:40.470Z,20.31
2023-02-04T19:45:12.539Z,19.98
2023-02-04T19:46:44.109Z,18.18
2023-02-04T19:48:15.497Z,17.91
2023-02-04T19:49:46.870Z,17.63
2023-02-04T19:51:18.185Z,16.40
2023-02-04T19:52:49.495Z,16.15
2023-02-04T19:54:21.779Z,15.19
2023-02-04T19:55:53.583Z,14.92
2023-02-04T19:57:26.099Z,13.45
2023-02-04T19:58:57.911Z,14.51
2023-02-04T20:00:29.504Z,13.76
2023-02-04T20:02:01.456Z,14.71
2023-02-04T20:03:32.927Z,14.61
2023-02-04T20:05:04.269Z,12.06
2023-02-04T20:06:35.691Z,12.59
2023-02-04T20:08:07.286Z,12.52
2023-02-04T20:09:38.704Z,11.62
2023-02-04T20:11:10.140Z,11.67
2023-02-04T20:12:41.530Z,11.76
2023-02-04T20:14:12.912Z,12.15
2023-02-04T20:15:44.540Z,12.20
2023-02-04T20:17:16.369Z,11.69
2023-02-04T20:18:47.750Z,11.50
2023-02-04T20:20:19.190Z,11.46
2023-02-04T20:21:50.573Z,10.56
2023-02-04T20:23:22.063Z,11.08
2023-02-04T20:24:54.140Z,10.79
2023-02-04T20:26:25.662Z,10.59
2023-02-04T20:27:57.679Z,10.86
2023-02-04T20:29:29.336Z,11.21
2023-02-04T20:31:01.442Z,11.14
2023-02-04T20:32:33.129Z,11.02
2023-02-04T20:34:04.556Z,10.75
2023-02-04T20:35:36.221Z,11.28
2023-02-04T20:37:07.843Z,11.35
2023-02-04T20:38:39.394Z,11.01
2023-02-04T20:42:10.395Z,10.74